SUMU/MVD METAR and TAF weather

Enter ICAO airport designator
Station Type Date Time Source
SUMU METAR 2018/12/15 20:00 UTC NOAA

SUMU 152000Z 14006KT CAVOK 24/09 Q1016 NOSIG


Station Type Date Time Source
SUMU Decoded METAR 2018/12/15 20:00 UTC NOAA

Carrasco, Uruguay (SUMU) 34-50S 056-00W 32M
Dec 15, 2018 - 03:00 PM EST / 2018.12.15 2000 UTC
Wind: from the SE (140 degrees) at 7 MPH (6 KT):0
Visibility: greater than 7 mile(s):0
Temperature: 75 F (24 C)
Dew Point: 48 F (9 C)
Relative Humidity: 38%
Pressure (altimeter): 30.00 in. Hg (1016 hPa)
ob: SUMU 152000Z 14006KT CAVOK 24/09 Q1016 NOSIG
cycle: 20

Station Type Date Time Source
SUMU TAF 2018/12/15 18:45 UTC NOAA

TAF TAF SUMU 151730Z 1518/1618 12005KT CAVOK TX29/1618Z TN16/1609Z
BECMG 1600/1602 04010KT


Example: see airport list